Time;durP1;ratioP1;P1;durP2;ratioP2;P2;SDS_P1;SDS_P2;PMS_P1;PMS_P2;Temp;Humidity;BMP_temperature;BMP_pressure;BME280_temperature;BME280_humidity;BME280_pressure;Samples;Min_cycle;Max_cycle;Signal;HPM_P1;HPM_P2
2020/12/02 00:00:26;;;;;;;32.47;18.80;;;2.60;99.90;;;;;;5070183;28;20449;-48
2020/12/02 00:03:01;;;;;;;35.90;18.37;;;2.70;99.90;;;;;;5070218;28;20515;-49
2020/12/02 00:05:30;;;;;;;31.60;18.13;;;2.60;99.90;;;;;;5069940;28;20450;-48
2020/12/02 00:08:06;;;;;;;32.97;19.40;;;2.50;99.90;;;;;;5049880;28;21015;-48
2020/12/02 00:10:32;;;;;;;30.13;17.70;;;2.50;99.90;;;;;;5063009;28;20503;-49
2020/12/02 00:12:59;;;;;;;28.83;16.90;;;2.50;99.90;;;;;;5069825;28;20451;-49
2020/12/02 00:15:25;;;;;;;26.97;16.50;;;2.60;99.90;;;;;;5070160;28;20506;-49
2020/12/02 00:17:56;;;;;;;27.27;16.23;;;2.60;99.90;;;;;;5069950;28;20988;-49
2020/12/02 00:20:22;;;;;;;29.80;16.13;;;2.60;99.90;;;;;;5069829;28;20495;-49
2020/12/02 00:22:49;;;;;;;27.57;16.07;;;2.60;99.90;;;;;;5063966;28;20509;-49
2020/12/02 00:25:16;;;;;;;30.67;15.80;;;2.60;99.90;;;;;;5050137;28;20451;-49
2020/12/02 00:27:43;;;;;;;27.27;16.13;;;2.60;99.90;;;;;;5049808;28;20537;-49
2020/12/02 00:30:12;;;;;;;30.00;17.30;;;2.50;99.90;;;;;;5049736;28;20501;-49
2020/12/02 00:32:40;;;;;;;27.07;17.23;;;2.60;99.90;;;;;;5059862;28;20454;-48
2020/12/02 00:35:11;;;;;;;26.30;15.87;;;2.50;99.90;;;;;;5073770;28;20449;-49
2020/12/02 00:37:37;;;;;;;29.43;16.63;;;2.60;99.90;;;;;;5073562;28;20474;-48
2020/12/02 00:40:05;;;;;;;28.03;16.50;;;2.50;99.90;;;;;;5073201;28;20442;-49
2020/12/02 00:42:31;;;;;;;27.20;16.13;;;2.50;99.90;;;;;;5073488;28;20933;-48
2020/12/02 00:44:58;;;;;;;31.23;17.70;;;2.50;99.90;;;;;;5073332;28;21003;-49
2020/12/02 00:47:25;;;;;;;30.33;17.23;;;2.60;99.90;;;;;;5072826;28;20994;-49
2020/12/02 00:49:54;;;;;;;32.07;17.87;;;2.50;99.90;;;;;;5072963;28;20528;-48
2020/12/02 00:52:21;;;;;;;30.23;16.90;;;2.50;99.90;;;;;;5073241;28;20446;-49
2020/12/02 00:54:48;;;;;;;30.00;17.70;;;2.30;99.90;;;;;;5073000;28;20454;-48
2020/12/02 00:57:20;;;;;;;31.27;16.90;;;2.30;99.90;;;;;;5073239;28;20443;-49
2020/12/02 00:59:52;;;;;;;28.30;17.13;;;2.40;99.90;;;;;;5072829;28;20503;-49
2020/12/02 01:02:29;;;;;;;28.70;16.90;;;2.30;99.90;;;;;;5072804;28;20530;-48
2020/12/02 01:04:59;;;;;;;28.57;16.20;;;2.30;99.90;;;;;;5070661;28;20454;-48
2020/12/02 01:07:29;;;;;;;28.30;16.17;;;2.40;99.90;;;;;;5068936;28;20492;-49
2020/12/02 01:09:56;;;;;;;31.40;17.37;;;2.50;99.90;;;;;;5071927;28;20542;-49
2020/12/02 01:12:23;;;;;;;28.50;15.90;;;2.30;99.90;;;;;;5072809;28;20439;-48
2020/12/02 01:14:50;;;;;;;29.70;15.70;;;2.30;99.90;;;;;;5072664;28;22038;-48
2020/12/02 01:17:16;;;;;;;28.93;15.93;;;2.40;99.90;;;;;;5071470;28;20451;-48
2020/12/02 01:19:43;;;;;;;27.47;15.90;;;2.40;99.90;;;;;;5067369;28;20895;-49
2020/12/02 01:22:15;;;;;;;28.23;16.37;;;2.50;99.90;;;;;;5071555;28;20902;-48
2020/12/02 01:24:49;;;;;;;31.33;16.80;;;2.50;99.90;;;;;;5072161;28;21011;-49
2020/12/02 01:27:21;;;;;;;30.27;15.97;;;2.50;99.90;;;;;;5072456;28;20508;-49
2020/12/02 01:29:49;;;;;;;29.03;15.77;;;2.50;99.90;;;;;;5072111;28;20600;-48
2020/12/02 01:32:16;;;;;;;28.90;17.20;;;2.60;99.90;;;;;;5072126;28;20519;-49
2020/12/02 01:34:47;;;;;;;30.90;18.10;;;2.40;99.90;;;;;;5071966;28;20477;-48
2020/12/02 01:37:30;;;;;;;31.27;17.37;;;2.30;99.90;;;;;;5072466;28;20504;-48
2020/12/02 01:40:13;;;;;;;30.73;16.30;;;2.30;99.90;;;;;;5071568;28;20475;-50
2020/12/02 01:42:41;;;;;;;32.03;17.07;;;2.30;99.90;;;;;;5069568;28;20940;-49
2020/12/02 01:45:16;;;;;;;32.20;17.60;;;2.30;99.90;;;;;;5072099;28;20858;-49
2020/12/02 01:47:52;;;;;;;30.40;16.40;;;2.50;99.90;;;;;;5071412;28;20478;-49
2020/12/02 01:50:27;;;;;;;28.27;16.37;;;2.40;99.90;;;;;;5071955;28;20504;-48
2020/12/02 01:53:02;;;;;;;29.40;16.40;;;2.40;99.90;;;;;;5067133;28;20907;-49
2020/12/02 01:55:36;;;;;;;35.03;17.13;;;2.30;99.90;;;;;;5070797;28;20534;-48
2020/12/02 02:00:35;;;;;;;31.70;15.83;;;2.50;99.90;;;;;;5068552;28;20463;-53
2020/12/02 02:03:10;;;;;;;26.23;14.97;;;2.50;99.90;;;;;;5072662;28;20445;-53
2020/12/02 02:05:45;;;;;;;28.10;14.97;;;2.50;99.90;;;;;;5068619;28;20862;-53
2020/12/02 02:08:12;;;;;;;27.50;15.23;;;2.60;99.90;;;;;;5051656;28;20992;-53
2020/12/02 02:10:42;;;;;;;28.10;15.20;;;2.60;99.90;;;;;;5066901;28;20451;-53
2020/12/02 02:13:28;;;;;;;29.17;14.90;;;2.60;99.90;;;;;;5071047;28;20477;-53
2020/12/02 02:15:59;;;;;;;29.10;15.30;;;2.50;99.90;;;;;;5071307;28;20956;-53
2020/12/02 02:18:28;;;;;;;27.60;15.10;;;2.60;99.90;;;;;;5070700;28;20493;-52
2020/12/02 02:20:57;;;;;;;27.13;14.23;;;2.50;99.90;;;;;;5071393;28;20590;-53
2020/12/02 02:23:24;;;;;;;27.47;14.70;;;2.50;99.90;;;;;;5070873;28;20504;-53
2020/12/02 02:26:18;;;;;;;32.60;16.23;;;2.60;99.90;;;;;;5071203;28;21005;-53
2020/12/02 02:28:50;;;;;;;26.97;14.83;;;2.60;99.90;;;;;;5063462;28;20787;-52
2020/12/02 02:31:19;;;;;;;28.60;15.60;;;2.60;99.90;;;;;;5070901;28;20443;-51
2020/12/02 02:33:47;;;;;;;27.53;14.83;;;2.70;99.90;;;;;;5070721;28;20500;-50
2020/12/02 02:36:15;;;;;;;24.03;13.20;;;2.70;99.90;;;;;;5071223;28;20455;-51
2020/12/02 02:38:42;;;;;;;29.27;14.80;;;2.70;99.90;;;;;;5070690;28;20497;-51
2020/12/02 02:41:10;;;;;;;28.03;15.83;;;2.70;99.90;;;;;;5070802;28;20882;-51
2020/12/02 02:43:38;;;;;;;28.37;15.10;;;2.60;99.90;;;;;;5070419;28;20502;-51
2020/12/02 02:46:06;;;;;;;22.93;13.40;;;2.50;99.90;;;;;;5070452;28;20723;-51
2020/12/02 02:48:32;;;;;;;32.33;14.70;;;2.60;99.90;;;;;;5070891;28;20568;-51
2020/12/02 02:50:59;;;;;;;28.80;16.00;;;2.60;99.90;;;;;;5070020;28;20454;-51
2020/12/02 02:53:26;;;;;;;29.30;16.53;;;2.60;99.90;;;;;;5071019;28;20447;-51
2020/12/02 02:55:54;;;;;;;25.70;14.27;;;2.60;99.90;;;;;;5069975;28;20529;-51
2020/12/02 02:58:25;;;;;;;28.07;14.93;;;2.60;99.90;;;;;;5070742;28;20466;-51
2020/12/02 03:00:53;;;;;;;29.43;15.60;;;2.70;99.90;;;;;;5070522;28;20489;-51
2020/12/02 03:03:20;;;;;;;26.87;16.40;;;2.60;99.90;;;;;;5070719;28;20454;-51
2020/12/02 03:05:47;;;;;;;29.13;16.33;;;2.50;99.90;;;;;;5070676;28;20439;-51
2020/12/02 03:08:15;;;;;;;30.80;16.27;;;2.50;99.90;;;;;;5070421;28;20544;-51
2020/12/02 03:10:43;;;;;;;26.20;15.00;;;2.60;99.90;;;;;;5069881;28;20447;-51
2020/12/02 03:13:20;;;;;;;26.67;14.43;;;2.60;99.90;;;;;;5070237;28;20450;-51
2020/12/02 03:15:48;;;;;;;25.33;14.50;;;2.60;99.90;;;;;;5070446;28;20466;-51
2020/12/02 03:18:16;;;;;;;30.23;16.47;;;2.60;99.90;;;;;;5070194;28;20948;-51
2020/12/02 03:20:47;;;;;;;23.43;14.50;;;2.70;99.90;;;;;;5070220;28;20447;-51
2020/12/02 03:23:15;;;;;;;29.70;15.37;;;2.70;99.90;;;;;;5070727;28;20804;-51
2020/12/02 03:25:43;;;;;;;27.93;14.50;;;2.70;99.90;;;;;;5070101;28;20526;-51
2020/12/02 03:28:10;;;;;;;28.57;16.67;;;2.70;99.90;;;;;;5070207;28;20581;-51
2020/12/02 03:30:38;;;;;;;26.63;15.07;;;2.60;99.90;;;;;;5069531;28;20450;-51
2020/12/02 03:33:06;;;;;;;26.43;15.30;;;2.60;99.90;;;;;;5070376;28;20879;-51
2020/12/02 03:35:33;;;;;;;27.93;15.40;;;2.60;99.90;;;;;;5069966;28;20458;-51
2020/12/02 03:38:00;;;;;;;27.37;16.37;;;2.60;99.90;;;;;;5070289;28;20446;-52
2020/12/02 03:40:26;;;;;;;28.50;15.37;;;2.60;99.90;;;;;;5070013;28;20492;-51
2020/12/02 03:42:53;;;;;;;28.90;15.50;;;2.60;99.90;;;;;;5070669;28;20447;-51
2020/12/02 03:45:19;;;;;;;27.43;16.10;;;2.60;99.90;;;;;;5070007;28;20447;-51
2020/12/02 03:47:46;;;;;;;31.70;16.07;;;2.60;99.90;;;;;;5069851;28;20478;-51
2020/12/02 03:50:13;;;;;;;31.73;16.97;;;2.60;99.90;;;;;;5069396;28;20524;-51
2020/12/02 03:52:41;;;;;;;29.80;16.47;;;2.50;99.90;;;;;;5068806;28;20505;-51
2020/12/02 03:55:08;;;;;;;26.40;15.80;;;2.60;99.90;;;;;;5067216;28;20450;-50
2020/12/02 03:57:34;;;;;;;29.37;17.23;;;2.60;99.90;;;;;;5055357;28;20436;-51
2020/12/02 04:00:01;;;;;;;24.87;14.83;;;2.50;99.90;;;;;;5049367;28;20463;-51
2020/12/02 04:02:28;;;;;;;27.37;15.47;;;2.60;99.90;;;;;;5055365;28;20445;-51
2020/12/02 04:04:54;;;;;;;30.73;16.70;;;2.60;99.90;;;;;;5053019;28;20458;-50
2020/12/02 04:07:21;;;;;;;26.80;15.23;;;2.60;99.90;;;;;;5063518;28;20484;-51
2020/12/02 04:09:48;;;;;;;28.00;16.70;;;2.70;99.90;;;;;;5070797;28;20466;-51
2020/12/02 04:12:15;;;;;;;29.93;16.03;;;2.70;99.90;;;;;;5061358;28;20450;-51
2020/12/02 04:14:41;;;;;;;30.10;16.43;;;2.70;99.90;;;;;;5054029;28;20991;-51
2020/12/02 04:17:08;;;;;;;28.70;16.17;;;2.60;99.90;;;;;;5056922;28;20956;-51
2020/12/02 04:19:34;;;;;;;29.83;15.90;;;2.60;99.90;;;;;;5053817;28;20459;-51
2020/12/02 04:22:01;;;;;;;30.70;17.30;;;2.60;99.90;;;;;;5053931;28;20849;-51
2020/12/02 04:24:27;;;;;;;26.93;15.90;;;2.50;99.90;;;;;;5067417;28;20447;-51
2020/12/02 04:26:54;;;;;;;30.77;17.07;;;2.60;99.90;;;;;;5072605;28;20525;-51
2020/12/02 04:29:21;;;;;;;29.83;16.20;;;2.60;99.90;;;;;;5061592;28;20483;-51
2020/12/02 04:31:47;;;;;;;31.23;17.73;;;2.60;99.90;;;;;;5053911;28;20447;-51
2020/12/02 04:34:14;;;;;;;33.30;17.10;;;2.60;99.90;;;;;;5053786;28;20444;-51
2020/12/02 04:36:40;;;;;;;30.17;17.33;;;2.60;99.90;;;;;;5068372;28;21007;-51
2020/12/02 04:39:07;;;;;;;31.97;16.63;;;2.40;99.90;;;;;;5066135;28;20988;-51
2020/12/02 04:41:34;;;;;;;30.10;15.97;;;2.40;99.90;;;;;;5053548;28;20454;-51
2020/12/02 04:44:01;;;;;;;28.73;16.23;;;2.50;99.90;;;;;;5053601;28;20498;-51
2020/12/02 04:46:31;;;;;;;27.90;16.70;;;2.60;99.90;;;;;;5053304;28;20953;-51
2020/12/02 04:49:03;;;;;;;26.70;15.13;;;2.60;99.90;;;;;;5052910;28;20741;-52
2020/12/02 04:51:30;;;;;;;30.00;16.37;;;2.60;99.90;;;;;;5072575;28;21016;-51
2020/12/02 04:54:00;;;;;;;26.23;16.03;;;2.60;99.90;;;;;;5073344;28;20505;-51
2020/12/02 04:56:28;;;;;;;27.83;16.13;;;2.60;99.90;;;;;;5073087;28;20973;-51
2020/12/02 04:58:58;;;;;;;26.80;15.70;;;2.60;99.90;;;;;;5072904;28;20918;-51
2020/12/02 05:01:28;;;;;;;24.20;15.20;;;2.60;99.90;;;;;;5072738;28;20447;-51
2020/12/02 05:04:02;;;;;;;26.97;16.60;;;2.60;99.90;;;;;;5073106;28;20454;-51
2020/12/02 05:06:32;;;;;;;30.17;15.40;;;2.60;99.90;;;;;;5073025;28;20508;-51
2020/12/02 05:09:11;;;;;;;23.13;14.40;;;2.60;99.90;;;;;;5072560;28;20543;-51
2020/12/02 05:11:37;;;;;;;26.53;15.30;;;2.60;99.90;;;;;;5073066;28;20451;-51
2020/12/02 05:14:07;;;;;;;28.33;16.03;;;2.60;99.90;;;;;;5072698;28;20887;-51
2020/12/02 05:16:34;;;;;;;34.30;17.50;;;2.60;99.90;;;;;;5069919;28;20446;-51
2020/12/02 05:19:10;;;;;;;28.23;16.10;;;2.30;99.90;;;;;;5051640;28;21023;-51
2020/12/02 05:21:40;;;;;;;41.97;16.77;;;2.30;99.90;;;;;;5068904;28;20446;-51
2020/12/02 05:24:13;;;;;;;33.53;18.70;;;2.30;99.90;;;;;;5071631;28;20526;-50
2020/12/02 05:26:41;;;;;;;37.17;19.60;;;2.10;99.90;;;;;;5071536;28;20493;-51
2020/12/02 05:29:29;;;;;;;35.17;18.60;;;2.00;99.90;;;;;;5071144;28;20536;-51
2020/12/02 05:32:03;;;;;;;38.60;19.73;;;2.10;99.90;;;;;;5071593;28;20496;-51
2020/12/02 05:34:32;;;;;;;37.00;18.20;;;2.00;99.90;;;;;;5068532;28;20443;-51
2020/12/02 05:37:03;;;;;;;34.73;17.73;;;2.00;99.90;;;;;;5056341;28;20431;-51
2020/12/02 05:39:41;;;;;;;29.93;16.90;;;2.00;99.90;;;;;;5052959;28;20467;-51
2020/12/02 05:42:18;;;;;;;33.63;17.60;;;2.20;99.90;;;;;;5066903;28;20973;-51
2020/12/02 05:44:44;;;;;;;32.17;17.07;;;2.10;99.90;;;;;;5057352;28;20444;-51
2020/12/02 05:47:14;;;;;;;26.80;15.97;;;2.20;99.90;;;;;;5054443;28;20440;-50
2020/12/02 05:49:48;;;;;;;31.90;17.20;;;2.20;99.90;;;;;;5069292;28;20459;-51
2020/12/02 05:52:19;;;;;;;31.70;16.63;;;2.30;99.90;;;;;;5058556;28;20435;-51
2020/12/02 05:54:47;;;;;;;33.30;17.80;;;2.10;99.90;;;;;;5054526;28;20473;-51
2020/12/02 05:57:17;;;;;;;33.30;17.90;;;1.90;99.90;;;;;;5057938;28;20451;-50
2020/12/02 05:59:46;;;;;;;31.00;17.10;;;1.90;99.90;;;;;;5060248;28;20918;-51
2020/12/02 06:02:15;;;;;;;37.63;18.53;;;1.90;99.90;;;;;;5056615;28;20525;-51
2020/12/02 06:04:43;;;;;;;34.20;18.10;;;2.00;99.90;;;;;;5056800;28;20518;-51
2020/12/02 06:07:09;;;;;;;31.53;17.60;;;2.00;99.90;;;;;;5051226;28;20444;-51
2020/12/02 06:09:41;;;;;;;36.80;18.87;;;2.10;99.90;;;;;;5050789;28;20483;-51
2020/12/02 06:12:11;;;;;;;29.53;16.33;;;2.20;99.90;;;;;;5065971;28;20484;-50
2020/12/02 06:14:38;;;;;;;36.80;17.00;;;2.30;99.90;;;;;;5066070;28;20436;-51
2020/12/02 06:17:06;;;;;;;31.97;16.23;;;2.30;99.90;;;;;;5050997;28;20873;-50
2020/12/02 06:19:47;;;;;;;34.50;19.40;;;2.40;99.90;;;;;;5061752;28;20463;-51
2020/12/02 06:22:26;;;;;;;32.03;17.50;;;2.30;99.90;;;;;;5056349;28;20439;-51
2020/12/02 06:24:53;;;;;;;30.37;17.30;;;2.20;99.90;;;;;;5068880;28;20496;-52
2020/12/02 06:27:42;;;;;;;33.07;18.13;;;2.30;99.90;;;;;;5067639;28;20870;-51
2020/12/02 06:30:26;;;;;;;35.20;19.37;;;2.40;99.90;;;;;;5052496;28;20992;-51
2020/12/02 06:33:01;;;;;;;35.60;19.33;;;2.50;99.90;;;;;;5060109;28;20443;-51
2020/12/02 06:35:29;;;;;;;32.33;18.80;;;2.50;99.90;;;;;;5058270;28;20944;-50
2020/12/02 06:38:27;;;;;;;35.00;20.00;;;2.50;99.90;;;;;;5069461;28;20469;-50
2020/12/02 06:41:30;;;;;;;33.27;18.37;;;2.50;99.90;;;;;;5060965;28;20456;-50
2020/12/02 06:44:18;;;;;;;35.43;18.77;;;2.60;99.90;;;;;;5058856;28;20525;-50
2020/12/02 06:47:04;;;;;;;34.63;19.00;;;2.50;99.90;;;;;;5057935;28;20580;-51
2020/12/02 06:49:34;;;;;;;35.27;18.47;;;2.50;99.90;;;;;;5068267;28;20908;-50
2020/12/02 06:52:04;;;;;;;37.20;20.07;;;2.60;99.90;;;;;;5065458;28;20500;-50
2020/12/02 06:54:36;;;;;;;39.20;22.13;;;2.50;99.90;;;;;;5068681;28;20529;-50
2020/12/02 06:57:14;;;;;;;42.90;22.87;;;2.40;99.90;;;;;;5068805;28;20486;-51
2020/12/02 06:59:51;;;;;;;35.90;20.90;;;2.30;99.90;;;;;;5068464;28;20473;-50
2020/12/02 07:02:29;;;;;;;33.03;19.90;;;2.40;99.90;;;;;;5061419;28;20450;-51
2020/12/02 07:04:58;;;;;;;37.20;20.83;;;2.40;99.90;;;;;;5067605;28;20477;-51
2020/12/02 07:07:25;;;;;;;37.93;19.70;;;2.50;99.90;;;;;;5052481;28;20451;-51
2020/12/02 07:09:52;;;;;;;37.80;20.20;;;2.50;99.90;;;;;;5055165;28;20471;-50
2020/12/02 07:12:22;;;;;;;34.00;17.70;;;2.50;99.90;;;;;;5060517;28;20451;-51
2020/12/02 07:14:50;;;;;;;34.80;20.13;;;2.50;99.90;;;;;;5060538;28;20880;-50
2020/12/02 07:17:21;;;;;;;36.43;20.27;;;2.60;99.90;;;;;;5064497;28;20479;-51
2020/12/02 07:19:48;;;;;;;37.17;19.60;;;2.60;99.90;;;;;;5052935;28;20517;-51
2020/12/02 07:22:19;;;;;;;29.43;19.00;;;2.60;99.90;;;;;;5052349;28;20444;-50
2020/12/02 07:24:48;;;;;;;37.93;21.00;;;2.70;99.90;;;;;;5050877;28;20493;-50
2020/12/02 07:27:16;;;;;;;29.13;18.50;;;2.60;99.90;;;;;;5050667;28;20808;-50
2020/12/02 07:29:42;;;;;;;32.67;19.90;;;2.60;99.90;;;;;;5050529;28;20919;-50
2020/12/02 07:32:14;;;;;;;37.37;21.40;;;2.60;99.90;;;;;;5050752;28;20493;-50
2020/12/02 07:34:41;;;;;;;41.90;26.80;;;2.70;99.90;;;;;;5047616;28;20431;-51
2020/12/02 07:37:11;;;;;;;42.00;24.90;;;2.70;99.90;;;;;;5049988;28;20767;-50
2020/12/02 07:39:46;;;;;;;38.13;22.27;;;2.60;99.90;;;;;;5050033;28;20455;-51
2020/12/02 07:42:19;;;;;;;39.80;21.10;;;2.60;99.90;;;;;;5052877;28;20937;-50
2020/12/02 07:44:49;;;;;;;38.73;21.47;;;2.50;99.90;;;;;;5054186;28;20447;-50
2020/12/02 07:47:17;;;;;;;39.30;20.83;;;2.50;99.90;;;;;;5054108;28;20524;-50
2020/12/02 07:49:54;;;;;;;39.07;22.10;;;2.60;99.90;;;;;;5053653;28;20947;-50
2020/12/02 07:52:24;;;;;;;42.00;21.20;;;2.60;99.90;;;;;;5067326;28;20526;-50
2020/12/02 07:54:55;;;;;;;43.83;22.33;;;2.70;99.90;;;;;;5074382;28;20442;-50
2020/12/02 07:57:24;;;;;;;42.43;22.53;;;2.60;99.90;;;;;;5073891;28;20998;-51
2020/12/02 08:00:17;;;;;;;44.20;21.30;;;2.60;99.90;;;;;;5073452;28;20556;-51
2020/12/02 08:02:45;;;;;;;52.17;26.37;;;2.70;99.90;;;;;;5073712;28;20439;-50
2020/12/02 08:05:42;;;;;;;46.70;22.90;;;2.60;99.90;;;;;;5073893;28;20442;-51
2020/12/02 08:08:08;;;;;;;39.43;20.30;;;2.50;99.90;;;;;;5073740;28;20486;-50
2020/12/02 08:10:37;;;;;;;36.90;20.60;;;2.60;99.90;;;;;;5073518;28;20496;-49
2020/12/02 08:13:12;;;;;;;36.97;20.00;;;2.60;99.90;;;;;;5073697;28;20450;-50
2020/12/02 08:15:52;;;;;;;42.50;21.30;;;2.80;99.90;;;;;;5073510;28;20844;-50
2020/12/02 08:18:21;;;;;;;38.37;19.77;;;2.70;99.90;;;;;;5073524;28;20955;-51
2020/12/02 08:20:48;;;;;;;37.00;19.93;;;2.90;99.90;;;;;;5072903;28;20447;-50
2020/12/02 08:23:22;;;;;;;34.30;18.73;;;2.90;99.90;;;;;;5073408;28;20475;-49
2020/12/02 08:26:04;;;;;;;35.97;18.50;;;3.00;99.90;;;;;;5066282;28;20440;-50
2020/12/02 08:28:36;;;;;;;34.97;18.80;;;3.10;99.90;;;;;;5054220;28;20487;-50
2020/12/02 08:31:13;;;;;;;36.70;18.83;;;3.20;99.90;;;;;;5053398;28;20839;-50
2020/12/02 08:33:40;;;;;;;34.50;18.10;;;3.20;99.90;;;;;;5053201;28;20501;-50
2020/12/02 08:36:08;;;;;;;37.37;18.80;;;3.20;99.90;;;;;;5053130;28;20447;-50
2020/12/02 08:38:38;;;;;;;36.30;19.03;;;3.20;99.90;;;;;;5052900;28;20509;-51
2020/12/02 08:41:15;;;;;;;37.43;17.40;;;3.20;99.90;;;;;;5053070;28;20454;-51
2020/12/02 08:43:47;;;;;;;30.07;17.10;;;3.10;99.90;;;;;;5053203;28;20501;-50
2020/12/02 08:46:21;;;;;;;34.03;19.17;;;3.20;99.90;;;;;;5053173;28;20945;-51
2020/12/02 08:48:50;;;;;;;30.90;16.93;;;3.30;99.90;;;;;;5052889;28;20500;-50
2020/12/02 08:51:19;;;;;;;42.37;20.10;;;3.30;99.90;;;;;;5057542;28;20439;-50
2020/12/02 08:53:46;;;;;;;67.47;28.67;;;3.30;99.90;;;;;;5071271;28;20956;-51
2020/12/02 08:56:26;;;;;;;138.77;48.13;;;3.10;99.90;;;;;;5072582;28;20499;-50
2020/12/02 08:58:57;;;;;;;116.00;41.30;;;3.10;99.90;;;;;;5072626;28;20474;-50
2020/12/02 09:01:23;;;;;;;84.23;36.90;;;3.20;99.90;;;;;;5072752;28;20442;-50
2020/12/02 09:03:49;;;;;;;92.73;34.87;;;2.90;99.90;;;;;;5072684;28;20447;-50
2020/12/02 09:06:18;;;;;;;69.20;32.07;;;2.70;99.90;;;;;;5072427;28;20446;-50
2020/12/02 09:08:45;;;;;;;59.87;28.60;;;2.80;99.90;;;;;;5072237;28;21212;-50
2020/12/02 09:11:13;;;;;;;63.00;28.03;;;2.90;99.90;;;;;;5072274;28;20451;-51
2020/12/02 09:13:40;;;;;;;49.23;24.60;;;2.80;99.90;;;;;;5072349;28;20450;-50
2020/12/02 09:16:06;;;;;;;50.77;22.60;;;2.80;99.90;;;;;;5071772;28;20451;-50
2020/12/02 09:18:33;;;;;;;49.43;22.87;;;2.70;99.90;;;;;;5068382;28;20522;-51
2020/12/02 09:20:59;;;;;;;40.30;20.73;;;2.80;99.90;;;;;;5071789;28;20501;-49
2020/12/02 09:23:26;;;;;;;44.77;21.93;;;2.90;99.90;;;;;;5072375;28;20496;-50
2020/12/02 09:25:52;;;;;;;43.33;22.33;;;3.00;99.90;;;;;;5072095;28;20447;-50
2020/12/02 09:28:19;;;;;;;42.70;21.90;;;3.00;99.90;;;;;;5072200;28;20479;-50
2020/12/02 09:30:46;;;;;;;43.00;22.93;;;3.00;99.90;;;;;;5071990;28;20447;-50
2020/12/02 09:33:12;;;;;;;42.43;19.93;;;3.10;99.90;;;;;;5071969;28;20469;-51
2020/12/02 09:35:39;;;;;;;37.30;20.50;;;3.10;99.90;;;;;;5071639;28;20494;-50
2020/12/02 09:38:09;;;;;;;38.87;19.63;;;3.00;99.90;;;;;;5072192;28;20435;-49
2020/12/02 09:40:35;;;;;;;38.70;19.37;;;3.10;99.90;;;;;;5072498;28;20517;-50
2020/12/02 09:43:15;;;;;;;36.77;18.17;;;3.20;99.90;;;;;;5062980;28;20860;-50
2020/12/02 09:45:50;;;;;;;39.10;19.63;;;3.30;99.90;;;;;;5070003;28;20491;-50
2020/12/02 09:48:23;;;;;;;31.60;18.37;;;3.40;99.90;;;;;;5071839;28;20493;-51
2020/12/02 09:50:50;;;;;;;36.30;18.47;;;3.60;99.90;;;;;;5071560;28;20916;-51
2020/12/02 09:53:20;;;;;;;33.27;17.70;;;3.60;99.90;;;;;;5071382;28;20443;-51
2020/12/02 09:55:47;;;;;;;31.33;17.10;;;3.40;99.90;;;;;;5071732;28;20500;-50
2020/12/02 09:58:15;;;;;;;29.73;17.00;;;3.50;99.90;;;;;;5071409;28;20442;-51
2020/12/02 10:00:41;;;;;;;35.73;19.50;;;3.50;99.90;;;;;;5071230;28;20443;-51
2020/12/02 10:03:48;;;;;;;31.43;18.13;;;3.50;99.90;;;;;;5071348;28;20446;-51
2020/12/02 10:06:45;;;;;;;35.17;19.00;;;3.50;99.90;;;;;;5071201;28;20508;-51
2020/12/02 10:09:38;;;;;;;33.13;18.20;;;3.60;99.90;;;;;;5051050;28;20539;-51
2020/12/02 10:12:13;;;;;;;30.37;17.27;;;3.80;99.90;;;;;;5070842;28;20521;-51
2020/12/02 10:15:02;;;;;;;33.00;18.50;;;3.90;99.90;;;;;;5070747;28;20508;-50
2020/12/02 10:18:10;;;;;;;32.23;17.73;;;4.10;99.90;;;;;;5071324;28;20534;-51
2020/12/02 10:20:43;;;;;;;34.40;18.47;;;4.20;99.90;;;;;;5059591;28;21029;-51
2020/12/02 10:23:37;;;;;;;28.67;15.83;;;4.20;99.90;;;;;;5070380;28;20454;-51
2020/12/02 10:26:34;;;;;;;33.60;17.57;;;4.20;99.90;;;;;;5070532;28;20470;-51
2020/12/02 10:29:05;;;;;;;31.60;16.63;;;4.20;99.90;;;;;;5070475;28;21026;-51
2020/12/02 10:31:44;;;;;;;29.80;15.40;;;3.90;99.90;;;;;;5070519;28;20451;-51
2020/12/02 10:34:14;;;;;;;33.13;16.23;;;4.00;99.90;;;;;;5070871;28;21001;-51
2020/12/02 10:36:45;;;;;;;27.60;15.47;;;4.10;99.90;;;;;;5070307;28;20537;-51
2020/12/02 10:39:19;;;;;;;24.70;14.50;;;4.20;99.90;;;;;;5070800;28;20489;-51
2020/12/02 10:42:02;;;;;;;23.83;14.10;;;4.30;99.90;;;;;;5069659;28;20940;-51
2020/12/02 10:44:42;;;;;;;23.77;13.30;;;4.40;99.90;;;;;;5070775;28;20455;-51
2020/12/02 10:47:43;;;;;;;23.00;12.90;;;4.30;99.90;;;;;;5070596;28;20512;-51
2020/12/02 10:50:10;;;;;;;19.07;10.87;;;4.20;99.90;;;;;;5070001;28;20519;-51
2020/12/02 10:52:39;;;;;;;20.57;10.60;;;3.90;99.90;;;;;;5070126;28;20450;-51
2020/12/02 10:55:13;;;;;;;19.43;10.10;;;4.00;99.90;;;;;;5070475;28;20833;-51
2020/12/02 10:57:41;;;;;;;20.50;10.80;;;3.90;99.90;;;;;;5070503;28;20579;-51
2020/12/02 11:00:11;;;;;;;19.37;10.10;;;3.70;99.90;;;;;;5070136;28;20524;-51
2020/12/02 11:02:37;;;;;;;20.00;10.63;;;3.50;99.90;;;;;;5070435;28;20928;-50
2020/12/02 11:05:06;;;;;;;18.03;10.50;;;3.60;99.90;;;;;;5070804;28;20446;-51
2020/12/02 11:07:45;;;;;;;16.90;9.50;;;3.70;99.90;;;;;;5070466;28;20458;-51
2020/12/02 11:10:19;;;;;;;18.47;10.10;;;3.80;99.90;;;;;;5069943;28;20482;-51
2020/12/02 11:13:08;;;;;;;30.57;13.77;;;4.00;99.90;;;;;;5070372;28;20442;-51
2020/12/02 11:15:45;;;;;;;26.23;11.80;;;4.00;99.90;;;;;;5069463;28;20447;-51
2020/12/02 11:18:27;;;;;;;19.10;10.57;;;4.10;99.90;;;;;;5070218;28;20986;-51
2020/12/02 11:21:01;;;;;;;22.03;11.90;;;4.00;99.90;;;;;;5069821;28;20450;-50
2020/12/02 11:23:51;;;;;;;22.77;11.87;;;4.20;99.90;;;;;;5070642;28;20497;-51
2020/12/02 11:26:23;;;;;;;20.23;11.07;;;4.30;99.90;;;;;;5070516;28;20451;-51
2020/12/02 11:28:52;;;;;;;22.10;11.90;;;4.40;99.90;;;;;;5070335;28;20482;-51
2020/12/02 11:31:48;;;;;;;21.97;10.83;;;4.30;99.90;;;;;;5069727;28;20882;-51
2020/12/02 11:34:33;;;;;;;20.30;10.27;;;4.00;99.90;;;;;;5068458;28;20446;-51
2020/12/02 11:37:05;;;;;;;23.70;11.67;;;3.90;99.90;;;;;;5069603;28;20500;-51
2020/12/02 11:39:50;;;;;;;21.90;11.90;;;3.90;99.90;;;;;;5069084;28;20951;-51
2020/12/02 11:42:26;;;;;;;26.63;13.70;;;4.20;99.90;;;;;;5070032;28;20936;-51
2020/12/02 11:44:58;;;;;;;24.60;12.50;;;4.30;99.90;;;;;;5069740;28;20953;-51
2020/12/02 11:47:40;;;;;;;25.33;13.60;;;4.50;99.90;;;;;;5069992;28;20907;-51
2020/12/02 11:50:13;;;;;;;31.60;14.23;;;4.40;99.90;;;;;;5069243;28;20573;-51
2020/12/02 11:52:52;;;;;;;25.63;13.07;;;4.10;99.90;;;;;;5069753;28;20457;-51
2020/12/02 11:55:20;;;;;;;29.47;12.13;;;4.00;99.90;;;;;;5069827;28;20459;-51
2020/12/02 11:57:52;;;;;;;27.13;13.33;;;3.70;99.90;;;;;;5069994;28;20447;-50
2020/12/02 12:00:19;;;;;;;28.63;13.43;;;3.60;99.90;;;;;;5069062;28;20466;-51
2020/12/02 12:02:58;;;;;;;28.33;13.37;;;3.60;99.90;;;;;;5069489;28;20454;-51
2020/12/02 12:05:27;;;;;;;27.27;12.70;;;3.50;99.90;;;;;;5069914;28;20457;-50
2020/12/02 12:08:07;;;;;;;31.40;14.63;;;3.40;99.90;;;;;;5069701;28;20446;-50
2020/12/02 12:10:42;;;;;;;24.93;12.30;;;3.50;99.90;;;;;;5069530;28;21018;-51
2020/12/02 12:13:16;;;;;;;26.60;12.87;;;3.50;99.90;;;;;;5070062;28;20857;-51
2020/12/02 12:15:45;;;;;;;29.97;14.10;;;3.50;99.90;;;;;;5068927;28;20532;-50
2020/12/02 12:18:18;;;;;;;26.90;13.40;;;3.50;99.90;;;;;;5058233;28;20454;-51
2020/12/02 12:20:52;;;;;;;31.13;12.80;;;3.20;99.90;;;;;;5049608;28;20454;-51
2020/12/02 12:23:38;;;;;;;30.47;12.93;;;2.90;99.90;;;;;;5051345;28;20443;-50
2020/12/02 12:26:09;;;;;;;30.03;12.77;;;2.80;99.90;;;;;;5065375;28;20443;-50
2020/12/02 12:28:35;;;;;;;31.33;13.53;;;2.70;99.90;;;;;;5067048;28;20540;-50
2020/12/02 12:31:07;;;;;;;34.40;12.90;;;2.60;99.90;;;;;;5071087;28;20928;-50
2020/12/02 12:33:40;;;;;;;30.07;13.10;;;2.60;99.90;;;;;;5071094;28;20439;-50
2020/12/02 12:36:11;;;;;;;30.40;12.27;;;2.50;99.90;;;;;;5069613;28;20956;-50
2020/12/02 12:38:46;;;;;;;29.97;12.37;;;2.60;99.90;;;;;;5070808;28;20515;-50
2020/12/02 12:41:20;;;;;;;26.13;11.03;;;2.60;99.90;;;;;;5071044;28;20437;-49
2020/12/02 12:43:56;;;;;;;29.70;12.10;;;2.70;99.90;;;;;;5071012;28;20940;-50
2020/12/02 12:46:38;;;;;;;29.13;12.37;;;2.80;99.90;;;;;;5070855;28;20449;-50
2020/12/02 12:49:05;;;;;;;29.10;11.90;;;2.90;99.90;;;;;;5070802;28;20931;-50
2020/12/02 12:51:32;;;;;;;25.90;10.97;;;2.80;99.90;;;;;;5072175;28;20451;-50
2020/12/02 12:54:03;;;;;;;29.00;11.43;;;2.70;99.90;;;;;;5072503;28;20821;-51
2020/12/02 12:56:31;;;;;;;27.67;11.90;;;2.50;99.90;;;;;;5072343;28;20512;-51
2020/12/02 12:59:01;;;;;;;25.90;10.57;;;2.60;99.90;;;;;;5071766;28;20501;-51
2020/12/02 13:01:29;;;;;;;27.50;11.30;;;2.50;99.90;;;;;;5072747;28;20450;-51